createdAt,value
2016-09-22T00:00:39.401Z,10.7
2016-09-22T00:01:39.357Z,10.92
2016-09-22T00:02:39.532Z,11.05
2016-09-22T00:03:39.498Z,11.13
2016-09-22T00:04:39.454Z,11.23
2016-09-22T00:05:39.480Z,11.21
2016-09-22T00:06:39.358Z,11.35
2016-09-22T00:07:39.501Z,11.48
2016-09-22T00:08:39.618Z,11.64
2016-09-22T00:09:39.475Z,11.86
2016-09-22T00:10:39.369Z,12.08
2016-09-22T00:11:39.426Z,12.01
2016-09-22T00:12:39.655Z,12.07
2016-09-22T00:13:39.632Z,12.01
2016-09-22T00:14:39.418Z,12.04
2016-09-22T00:15:39.495Z,11.88
2016-09-22T00:16:39.638Z,12.01
2016-09-22T00:17:39.557Z,12
2016-09-22T00:18:39.597Z,12.05
2016-09-22T00:19:39.415Z,12.13
2016-09-22T00:20:39.504Z,12.01
2016-09-22T00:21:39.384Z,12.07
2016-09-22T00:22:39.552Z,12.03
2016-09-22T00:23:39.571Z,11.89
2016-09-22T00:24:39.433Z,11.82
2016-09-22T00:25:39.430Z,11.78
2016-09-22T00:26:39.668Z,11.66
2016-09-22T00:27:39.672Z,11.53
2016-09-22T00:28:39.472Z,11.42
2016-09-22T00:29:39.690Z,11.42
2016-09-22T00:30:39.531Z,11.24
2016-09-22T00:31:39.686Z,11.05
2016-09-22T00:32:39.684Z,11.05
2016-09-22T00:33:39.594Z,10.94
2016-09-22T00:34:39.586Z,10.87
2016-09-22T00:35:39.582Z,10.8
2016-09-22T00:36:39.595Z,10.7
2016-09-22T00:37:39.563Z,10.59
2016-09-22T00:38:39.706Z,10.57
2016-09-22T00:39:39.481Z,10.44
2016-09-22T00:40:39.427Z,10.49
2016-09-22T00:41:39.486Z,10.32
2016-09-22T00:42:39.617Z,10.28
2016-09-22T00:43:39.574Z,10.32
2016-09-22T00:44:39.569Z,10.32
2016-09-22T00:45:39.642Z,10.28
2016-09-22T00:46:39.604Z,10.21
2016-09-22T00:47:39.724Z,10.23
2016-09-22T00:48:39.581Z,10.15
2016-09-22T00:49:39.722Z,10.25
2016-09-22T00:50:39.782Z,10.36
2016-09-22T00:51:39.498Z,10.29
2016-09-22T00:52:39.486Z,10.31
2016-09-22T00:53:39.633Z,10.31
2016-09-22T00:54:39.619Z,10.18
2016-09-22T00:55:39.626Z,10.18
2016-09-22T00:56:39.770Z,10.17
2016-09-22T00:57:39.678Z,10.07
2016-09-22T00:58:39.563Z,10.07
2016-09-22T00:59:39.552Z,10.05
2016-09-22T01:00:39.780Z,10.02
2016-09-22T01:01:39.549Z,10.03
2016-09-22T01:02:39.772Z,10
2016-09-22T01:03:39.627Z,9.98
2016-09-22T01:04:39.775Z,9.95
2016-09-22T01:05:39.787Z,9.85
2016-09-22T01:06:39.810Z,9.88
2016-09-22T01:07:39.643Z,9.82
2016-09-22T01:08:39.695Z,9.78
2016-09-22T01:09:39.703Z,9.82
2016-09-22T01:10:39.659Z,9.84
2016-09-22T01:11:39.718Z,9.82
2016-09-22T01:12:39.562Z,9.85
2016-09-22T01:13:39.786Z,9.63
2016-09-22T01:14:39.702Z,9.75
2016-09-22T01:15:39.663Z,9.7
2016-09-22T01:16:39.713Z,9.64
2016-09-22T01:17:39.813Z,9.59
2016-09-22T01:18:39.532Z,9.52
2016-09-22T01:19:39.675Z,9.6
2016-09-22T01:20:39.614Z,9.45
2016-09-22T01:21:39.717Z,9.56
2016-09-22T01:22:39.757Z,9.57
2016-09-22T01:23:39.699Z,9.45
2016-09-22T01:24:39.755Z,9.5
2016-09-22T01:25:39.851Z,9.53
2016-09-22T01:26:39.718Z,9.44
2016-09-22T01:27:39.779Z,9.45
2016-09-22T01:28:39.626Z,9.41
2016-09-22T01:29:39.860Z,9.42
2016-09-22T01:30:39.860Z,9.42
2016-09-22T01:31:39.712Z,9.44
2016-09-22T01:32:39.758Z,9.42
2016-09-22T01:33:39.751Z,9.41
2016-09-22T01:34:39.714Z,9.37
2016-09-22T01:35:39.764Z,9.37
2016-09-22T01:36:39.728Z,9.39
2016-09-22T01:37:39.581Z,9.35
2016-09-22T01:38:39.776Z,9.38
2016-09-22T01:39:39.594Z,9.39
2016-09-22T01:40:39.731Z,9.3
2016-09-22T01:41:39.600Z,9.29
2016-09-22T01:42:39.888Z,9.29
2016-09-22T01:43:39.902Z,9.38
2016-09-22T01:44:39.646Z,9.24
2016-09-22T01:45:39.761Z,9.21
2016-09-22T01:46:39.776Z,9.29
2016-09-22T01:47:39.762Z,9.38
2016-09-22T01:48:39.758Z,9.37
2016-09-22T01:49:39.644Z,9.39
2016-09-22T01:50:39.766Z,9.3
2016-09-22T01:51:39.799Z,9.32
2016-09-22T01:52:39.794Z,9.37
2016-09-22T01:53:39.911Z,9.35
2016-09-22T01:54:39.970Z,9.23
2016-09-22T01:55:39.840Z,9.32
2016-09-22T01:56:39.636Z,9.34
2016-09-22T01:57:39.813Z,9.99
2016-09-22T01:58:39.813Z,10.14
2016-09-22T01:59:39.949Z,10.28
2016-09-22T02:00:39.928Z,10.28
2016-09-22T02:01:39.800Z,10.28
2016-09-22T02:02:39.936Z,10.18
2016-09-22T02:03:39.810Z,10.26
2016-09-22T02:04:39.946Z,10.23
2016-09-22T02:05:39.837Z,10.15
2016-09-22T02:06:39.945Z,10.17
2016-09-22T02:07:39.694Z,10.05
2016-09-22T02:08:39.957Z,10.02
2016-09-22T02:09:39.823Z,10.13
2016-09-22T02:10:39.888Z,10.13
2016-09-22T02:11:39.829Z,10.13
2016-09-22T02:12:39.818Z,10.18
2016-09-22T02:13:39.821Z,10.26
2016-09-22T02:14:39.866Z,10.25
2016-09-22T02:15:39.861Z,10.26
2016-09-22T02:16:39.838Z,10.28
2016-09-22T02:17:39.843Z,10.39
2016-09-22T02:18:39.845Z,10.65
2016-09-22T02:19:39.976Z,10.94
2016-09-22T02:20:39.887Z,11.23
2016-09-22T02:21:39.848Z,11.38
2016-09-22T02:22:39.845Z,11.43
2016-09-22T02:23:39.900Z,11.45
2016-09-22T02:24:39.863Z,11.38
2016-09-22T02:25:39.893Z,11.34
2016-09-22T02:26:39.919Z,11.33
2016-09-22T02:27:39.771Z,11.24
2016-09-22T02:28:39.723Z,11.15
2016-09-22T02:29:39.874Z,11.02
2016-09-22T02:30:39.730Z,10.9
2016-09-22T02:31:39.900Z,10.85
2016-09-22T02:32:39.878Z,10.75
2016-09-22T02:33:39.887Z,10.51
2016-09-22T02:34:40.020Z,10.49
2016-09-22T02:35:39.903Z,10.25
2016-09-22T02:36:40.037Z,10.07
2016-09-22T02:37:39.814Z,10.05
2016-09-22T02:38:39.786Z,9.95
2016-09-22T02:39:39.899Z,9.8
2016-09-22T02:40:39.900Z,9.88
2016-09-22T02:41:40.043Z,9.81
2016-09-22T02:42:39.879Z,9.9
2016-09-22T02:43:39.937Z,9.82
2016-09-22T02:44:39.948Z,9.89
2016-09-22T02:45:39.849Z,9.8
2016-09-22T02:46:39.915Z,9.77
2016-09-22T02:47:40.083Z,9.7
2016-09-22T02:48:39.973Z,9.75
2016-09-22T02:49:39.937Z,9.64
2016-09-22T02:50:40.072Z,9.63
2016-09-22T02:51:39.820Z,9.64
2016-09-22T02:52:40.068Z,9.59
2016-09-22T02:53:39.974Z,9.59
2016-09-22T02:54:39.965Z,9.62
2016-09-22T02:55:39.797Z,9.55
2016-09-22T02:56:39.973Z,9.42
2016-09-22T02:57:39.967Z,9.47
2016-09-22T02:58:40.117Z,9.41
2016-09-22T02:59:40.084Z,9.38
2016-09-22T03:00:39.881Z,9.32
2016-09-22T03:01:39.942Z,9.3
2016-09-22T03:02:39.956Z,9.3
2016-09-22T03:03:39.993Z,9.3
2016-09-22T03:04:39.974Z,9.21
2016-09-22T03:05:40.002Z,9.26
2016-09-22T03:06:40.109Z,9.17
2016-09-22T03:07:40.007Z,9.14
2016-09-22T03:08:39.979Z,9.23
2016-09-22T03:09:39.972Z,9.03
2016-09-22T03:10:39.983Z,9.09
2016-09-22T03:11:39.986Z,9.04
2016-09-22T03:12:39.888Z,9.14
2016-09-22T03:13:39.989Z,9.05
2016-09-22T03:14:40.169Z,8.98
2016-09-22T03:15:39.980Z,8.95
2016-09-22T03:16:39.894Z,9.04
2016-09-22T03:17:40.008Z,9.04
2016-09-22T03:18:39.895Z,9
2016-09-22T03:19:39.893Z,8.97
2016-09-22T03:20:40.149Z,8.94
2016-09-22T03:21:39.885Z,9.01
2016-09-22T03:22:40.059Z,8.92
2016-09-22T03:23:40.025Z,8.94
2016-09-22T03:24:40.017Z,9.04
2016-09-22T03:25:40.021Z,8.98
2016-09-22T03:26:40.058Z,8.92
2016-09-22T03:27:40.046Z,8.94
2016-09-22T03:28:40.069Z,9.01
2016-09-22T03:29:40.070Z,8.89
2016-09-22T03:30:40.113Z,9.05
2016-09-22T03:31:40.184Z,9.03
2016-09-22T03:32:40.183Z,9
2016-09-22T03:33:40.193Z,8.97
2016-09-22T03:34:40.081Z,8.94
2016-09-22T03:35:40.337Z,9
2016-09-22T03:36:39.979Z,8.97
2016-09-22T03:37:39.978Z,8.98
2016-09-22T03:38:40.195Z,8.94
2016-09-22T03:39:39.911Z,8.92
2016-09-22T03:40:40.210Z,8.87
2016-09-22T03:41:39.977Z,8.94
2016-09-22T03:42:39.966Z,8.94
2016-09-22T03:43:40.092Z,8.83
2016-09-22T03:44:40.016Z,8.9
2016-09-22T03:45:40.135Z,8.87
2016-09-22T03:46:40.493Z,8.83
2016-09-22T03:47:40.213Z,8.85
2016-09-22T03:48:40.261Z,8.77
2016-09-22T03:49:40.232Z,8.76
2016-09-22T03:50:40.107Z,8.77
2016-09-22T03:51:40.262Z,8.71
2016-09-22T03:52:40.242Z,8.72
2016-09-22T03:53:40.145Z,8.68
2016-09-22T03:54:40.246Z,8.64
2016-09-22T03:55:40.099Z,8.68
2016-09-22T03:56:40.004Z,8.62
2016-09-22T03:57:40.100Z,8.64
2016-09-22T03:58:40.288Z,8.64
2016-09-22T03:59:40.114Z,8.6
2016-09-22T04:00:40.258Z,8.6
2016-09-22T04:01:40.128Z,8.61
2016-09-22T04:02:40.071Z,8.5
2016-09-22T04:03:40.129Z,8.44
2016-09-22T04:04:40.271Z,8.5
2016-09-22T04:05:39.998Z,8.47
2016-09-22T04:06:40.037Z,8.49
2016-09-22T04:07:40.161Z,8.61
2016-09-22T04:08:40.167Z,8.67
2016-09-22T04:09:40.037Z,8.57
2016-09-22T04:10:40.182Z,8.57
2016-09-22T04:11:40.288Z,8.6
2016-09-22T04:12:40.291Z,8.67
2016-09-22T04:13:40.010Z,8.65
2016-09-22T04:14:40.186Z,8.65
2016-09-22T04:15:40.193Z,8.77
2016-09-22T04:16:40.186Z,8.77
2016-09-22T04:17:40.062Z,8.85
2016-09-22T04:18:40.205Z,8.85
2016-09-22T04:19:40.210Z,8.94
2016-09-22T04:20:40.214Z,8.95
2016-09-22T04:21:40.320Z,8.98
2016-09-22T04:22:40.198Z,8.94
2016-09-22T04:23:40.185Z,8.82
2016-09-22T04:24:40.313Z,8.86
2016-09-22T04:25:40.048Z,8.77
2016-09-22T04:26:40.190Z,8.74
2016-09-22T04:27:40.085Z,8.9
2016-09-22T04:28:40.188Z,8.89
2016-09-22T04:29:40.162Z,9.08
2016-09-22T04:30:40.338Z,9.05
2016-09-22T04:31:40.189Z,9
2016-09-22T04:32:40.141Z,9.04
2016-09-22T04:33:40.345Z,8.92
2016-09-22T04:34:40.244Z,8.97
2016-09-22T04:35:40.197Z,8.87
2016-09-22T04:36:40.222Z,8.79
2016-09-22T04:37:40.110Z,8.76
2016-09-22T04:38:40.362Z,8.72
2016-09-22T04:39:40.233Z,8.76
2016-09-22T04:40:40.085Z,8.68
2016-09-22T04:41:40.235Z,8.67
2016-09-22T04:42:40.362Z,8.69
2016-09-22T04:43:40.168Z,8.65
2016-09-22T04:44:40.256Z,8.67
2016-09-22T04:45:40.126Z,8.65
2016-09-22T04:46:40.232Z,8.64
2016-09-22T04:47:40.258Z,8.72
2016-09-22T04:48:40.124Z,8.82
2016-09-22T04:49:40.298Z,8.72
2016-09-22T04:50:40.434Z,8.67
2016-09-22T04:51:40.305Z,8.65
2016-09-22T04:52:40.271Z,8.79
2016-09-22T04:53:40.415Z,8.9
2016-09-22T04:54:40.309Z,8.97
2016-09-22T04:55:40.187Z,8.98
2016-09-22T04:56:40.180Z,9.17
2016-09-22T04:57:40.317Z,9.3
2016-09-22T04:58:40.409Z,9.48
2016-09-22T04:59:40.134Z,9.67
2016-09-22T05:00:40.333Z,9.75
2016-09-22T05:01:40.272Z,9.81
2016-09-22T05:02:40.280Z,9.88
2016-09-22T05:03:40.328Z,9.93
2016-09-22T05:04:40.319Z,9.92
2016-09-22T05:05:40.422Z,9.92
2016-09-22T05:06:40.328Z,9.8
2016-09-22T05:07:40.350Z,9.7
2016-09-22T05:08:40.322Z,9.64
2016-09-22T05:09:40.460Z,9.62
2016-09-22T05:10:40.301Z,9.6
2016-09-22T05:11:40.201Z,9.48
2016-09-22T05:12:40.303Z,9.53
2016-09-22T05:13:40.172Z,9.59
2016-09-22T05:14:40.312Z,9.62
2016-09-22T05:15:40.309Z,9.7
2016-09-22T05:16:40.172Z,9.77
2016-09-22T05:17:40.326Z,9.95
2016-09-22T05:18:40.320Z,10.07
2016-09-22T05:19:40.267Z,10.05
2016-09-22T05:20:40.469Z,10.05
2016-09-22T05:21:40.265Z,10.08
2016-09-22T05:22:40.238Z,10.15
2016-09-22T05:23:40.339Z,10.29
2016-09-22T05:24:40.198Z,10.39
2016-09-22T05:25:40.354Z,10.52
2016-09-22T05:26:40.388Z,10.63
2016-09-22T05:27:40.414Z,10.66
2016-09-22T05:28:40.219Z,10.65
2016-09-22T05:29:40.249Z,10.69
2016-09-22T05:30:40.359Z,10.54
2016-09-22T05:31:40.423Z,10.32
2016-09-22T05:32:40.233Z,10.18
2016-09-22T05:33:40.262Z,10
2016-09-22T05:34:40.502Z,9.93
2016-09-22T05:35:40.381Z,9.82
2016-09-22T05:36:40.377Z,9.81
2016-09-22T05:37:40.240Z,9.67
2016-09-22T05:38:40.452Z,9.57
2016-09-22T05:39:40.403Z,9.5
2016-09-22T05:40:40.436Z,9.52
2016-09-22T05:41:40.300Z,9.45
2016-09-22T05:42:40.478Z,9.48
2016-09-22T05:43:40.306Z,9.5
2016-09-22T05:44:40.427Z,9.52
2016-09-22T05:45:40.571Z,9.47
2016-09-22T05:46:40.432Z,9.56
2016-09-22T05:47:40.449Z,9.44
2016-09-22T05:48:40.547Z,9.75
2016-09-22T05:49:40.367Z,9.81
2016-09-22T05:50:40.568Z,9.99
2016-09-22T05:51:40.324Z,10.14
2016-09-22T05:52:40.419Z,10.28
2016-09-22T05:53:40.560Z,10.33
2016-09-22T05:54:40.658Z,10.38
2016-09-22T05:55:40.570Z,10.59
2016-09-22T05:56:40.460Z,10.67
2016-09-22T05:57:40.445Z,10.69
2016-09-22T05:58:40.457Z,10.76
2016-09-22T05:59:40.535Z,10.69
2016-09-22T06:00:40.442Z,10.72
2016-09-22T06:01:40.616Z,10.63
2016-09-22T06:02:40.622Z,10.84
2016-09-22T06:03:40.401Z,10.84
2016-09-22T06:04:40.526Z,10.87
2016-09-22T06:05:40.615Z,11.08
2016-09-22T06:06:40.492Z,11.06
2016-09-22T06:07:40.463Z,11.09
2016-09-22T06:08:40.511Z,11.03
2016-09-22T06:09:40.338Z,11.06
2016-09-22T06:10:40.541Z,11.09
2016-09-22T06:11:40.628Z,11.15
2016-09-22T06:12:40.515Z,11.1
2016-09-22T06:13:40.627Z,11.31
2016-09-22T06:14:40.511Z,11.3
2016-09-22T06:15:40.641Z,11.3
2016-09-22T06:16:40.485Z,11.26
2016-09-22T06:17:40.654Z,11.23
2016-09-22T06:18:40.637Z,11.33
2016-09-22T06:19:40.632Z,11.45
2016-09-22T06:20:40.536Z,11.48
2016-09-22T06:21:40.506Z,11.45
2016-09-22T06:22:40.644Z,11.45
2016-09-22T06:23:40.455Z,11.46
2016-09-22T06:24:40.653Z,11.43
2016-09-22T06:25:40.411Z,11.41
2016-09-22T06:26:40.561Z,11.41
2016-09-22T06:27:40.379Z,11.41
2016-09-22T06:28:40.442Z,11.35
2016-09-22T06:29:40.382Z,11.33
2016-09-22T06:30:40.545Z,11.34
2016-09-22T06:31:40.700Z,11.23
2016-09-22T06:32:40.541Z,11.26
2016-09-22T06:33:40.569Z,11.23
2016-09-22T06:34:40.458Z,11.56
2016-09-22T06:35:40.503Z,11.51
2016-09-22T06:36:40.685Z,11.46
2016-09-22T06:37:40.547Z,11.67
2016-09-22T06:38:40.539Z,11.82
2016-09-22T06:39:40.555Z,11.88
2016-09-22T06:40:40.599Z,12.05
2016-09-22T06:41:40.582Z,12.07
2016-09-22T06:42:40.458Z,12.18
2016-09-22T06:43:40.605Z,12.29
2016-09-22T06:44:40.573Z,12.37
2016-09-22T06:45:40.595Z,12.37
2016-09-22T06:46:40.496Z,12.41
2016-09-22T06:47:40.639Z,12.36
2016-09-22T06:48:40.605Z,12.51
2016-09-22T06:49:40.622Z,12.69
2016-09-22T06:50:40.454Z,13.1
2016-09-22T06:51:40.716Z,13.37
2016-09-22T06:52:40.622Z,13.21
2016-09-22T06:53:40.756Z,13.36
2016-09-22T06:54:40.601Z,13.2
2016-09-22T06:55:40.501Z,13.11
2016-09-22T06:56:40.595Z,13.27
2016-09-22T06:57:40.499Z,13.21
2016-09-22T06:58:40.779Z,13.53
2016-09-22T06:59:40.644Z,13.81
2016-09-22T07:00:40.625Z,13.84
2016-09-22T07:01:40.665Z,13.88
2016-09-22T07:02:40.680Z,14.02
2016-09-22T07:03:40.555Z,14.13
2016-09-22T07:04:40.663Z,14.06
2016-09-22T07:05:40.670Z,14.11
2016-09-22T07:06:40.656Z,14.13
2016-09-22T07:07:40.789Z,13.86
2016-09-22T07:08:40.797Z,13.94
2016-09-22T07:09:40.774Z,14.2
2016-09-22T07:10:40.778Z,14.26
2016-09-22T07:11:40.796Z,14.39
2016-09-22T07:12:40.792Z,14.42
2016-09-22T07:13:40.585Z,14.59
2016-09-22T07:14:41.199Z,14.79
2016-09-22T07:15:40.701Z,14.94
2016-09-22T07:16:40.569Z,15.22
2016-09-22T07:17:40.715Z,15.22
2016-09-22T07:18:40.602Z,15.49
2016-09-22T07:19:41.102Z,15.74
2016-09-22T07:20:40.666Z,15.7
2016-09-22T07:21:40.707Z,15.75
2016-09-22T07:22:40.825Z,15.81
2016-09-22T07:23:40.821Z,15.88
2016-09-22T07:24:40.815Z,16.02
2016-09-22T07:25:40.682Z,16.04
2016-09-22T07:26:41.592Z,15.99
2016-09-22T07:27:40.694Z,15.68
2016-09-22T07:28:40.838Z,15.77
2016-09-22T07:29:40.844Z,15.89
2016-09-22T07:30:40.921Z,15.71
2016-09-22T07:31:40.708Z,16.04
2016-09-22T07:32:40.722Z,16.3
2016-09-22T07:33:40.847Z,16.04
2016-09-22T07:34:40.865Z,16.06
2016-09-22T07:35:40.780Z,15.86
2016-09-22T07:36:40.722Z,15.96
2016-09-22T07:37:40.757Z,16.33
2016-09-22T07:38:40.730Z,16.22
2016-09-22T07:39:40.872Z,16.11
2016-09-22T07:40:40.788Z,16.1
2016-09-22T07:41:40.729Z,16.14
2016-09-22T07:42:40.596Z,16.06
2016-09-22T07:43:40.767Z,15.84
2016-09-22T07:44:40.761Z,16.13
2016-09-22T07:45:40.614Z,16.14
2016-09-22T07:46:40.827Z,16.33
2016-09-22T07:47:40.773Z,16.42
2016-09-22T07:48:40.820Z,16.44
2016-09-22T07:49:40.684Z,16.47
2016-09-22T07:50:40.783Z,16.36
2016-09-22T07:51:40.796Z,16.39
2016-09-22T07:52:40.671Z,16.39
2016-09-22T07:53:40.790Z,16.16
2016-09-22T07:54:40.674Z,16.26
2016-09-22T07:55:40.770Z,16.13
2016-09-22T07:56:40.817Z,16.25
2016-09-22T07:57:40.772Z,16.1
2016-09-22T07:58:40.817Z,16.36
2016-09-22T07:59:40.724Z,16.42
2016-09-22T08:00:40.803Z,16.42
2016-09-22T08:01:40.793Z,16.42
2016-09-22T08:02:40.897Z,16.22
2016-09-22T08:03:40.882Z,16.13
2016-09-22T08:04:40.660Z,16.08
2016-09-22T08:05:40.851Z,16.08
2016-09-22T08:06:40.807Z,16
2016-09-22T08:07:40.883Z,16.27
2016-09-22T08:08:40.973Z,16.69
2016-09-22T08:09:40.847Z,17.12
2016-09-22T08:10:40.834Z,16.8
2016-09-22T08:11:40.777Z,16.87
2016-09-22T08:12:40.975Z,16.81
2016-09-22T08:13:40.875Z,16.72
2016-09-22T08:14:41.034Z,16.82
2016-09-22T08:15:40.879Z,16.59
2016-09-22T08:16:40.836Z,16.67
2016-09-22T08:17:40.938Z,16.85
2016-09-22T08:18:40.929Z,17.17
2016-09-22T08:19:40.869Z,17.66
2016-09-22T08:20:40.883Z,18.17
2016-09-22T08:21:40.781Z,18.39
2016-09-22T08:22:40.868Z,18.35
2016-09-22T08:23:41.024Z,18.2
2016-09-22T08:24:40.911Z,18.29
2016-09-22T08:25:40.864Z,18.23
2016-09-22T08:26:40.875Z,18.26
2016-09-22T08:27:40.957Z,18.05
2016-09-22T08:28:41.031Z,18.06
2016-09-22T08:29:40.921Z,17.87
2016-09-22T08:30:40.748Z,17.96
2016-09-22T08:31:40.923Z,18.16
2016-09-22T08:32:40.889Z,18.47
2016-09-22T08:33:40.790Z,18.63
2016-09-22T08:34:40.945Z,18.74
2016-09-22T08:35:41.138Z,18.84
2016-09-22T08:36:40.852Z,18.72
2016-09-22T08:37:41.818Z,18.59
2016-09-22T08:38:40.922Z,18.42
2016-09-22T08:39:41.001Z,18.26
2016-09-22T08:40:40.990Z,18.45
2016-09-22T08:41:42.205Z,18.44
2016-09-22T08:42:42.370Z,18.5
2016-09-22T08:43:42.204Z,18.69
2016-09-22T08:44:41.242Z,19.1
2016-09-22T08:45:41.985Z,19.45
2016-09-22T08:46:41.233Z,18.94
2016-09-22T08:47:41.149Z,18.78
2016-09-22T08:48:42.197Z,18.79
2016-09-22T08:49:41.047Z,18.76
2016-09-22T08:50:41.456Z,18.53
2016-09-22T08:51:40.918Z,18.42
2016-09-22T08:52:41.139Z,18.26
2016-09-22T08:53:41.159Z,18.94
2016-09-22T08:54:40.871Z,18.99
2016-09-22T08:55:41.229Z,19.07
2016-09-22T08:56:41.098Z,19.56
2016-09-22T08:57:41.919Z,19.87
2016-09-22T08:58:41.823Z,19.87
2016-09-22T08:59:41.112Z,19.67
2016-09-22T09:00:41.022Z,19.65
2016-09-22T09:01:41.113Z,19.5
2016-09-22T09:02:40.952Z,19.35
2016-09-22T09:03:41.195Z,19.28
2016-09-22T09:04:40.985Z,19.12
2016-09-22T09:05:40.885Z,19.06
2016-09-22T09:06:41.305Z,18.96
2016-09-22T09:07:41.051Z,19.1
2016-09-22T09:08:40.851Z,18.96
2016-09-22T09:09:41.138Z,18.99
2016-09-22T09:10:41.112Z,19.09
2016-09-22T09:11:41.322Z,19.49
2016-09-22T09:12:40.901Z,19.82
2016-09-22T09:13:41.158Z,19.86
2016-09-22T09:14:41.055Z,20.04
2016-09-22T09:15:41.185Z,20.22
2016-09-22T09:16:41.223Z,20.57
2016-09-22T09:17:41.213Z,20.79
2016-09-22T09:18:41.203Z,20.76
2016-09-22T09:19:41.093Z,20.85
2016-09-22T09:20:40.925Z,21.22
2016-09-22T09:21:41.040Z,20.85
2016-09-22T09:22:41.097Z,20.76
2016-09-22T09:23:41.038Z,20.18
2016-09-22T09:24:41.036Z,20.27
2016-09-22T09:25:40.913Z,20.96
2016-09-22T09:26:41.076Z,21.31
2016-09-22T09:27:41.238Z,21.4
2016-09-22T09:28:41.150Z,20.61
2016-09-22T09:29:41.126Z,20.6
2016-09-22T09:30:41.148Z,20.35
2016-09-22T09:31:41.743Z,20.46
2016-09-22T09:32:41.115Z,20.48
2016-09-22T09:33:41.172Z,20.64
2016-09-22T09:34:40.946Z,20.68
2016-09-22T09:35:41.090Z,20.66
2016-09-22T09:36:45.365Z,21.08
2016-09-22T09:37:40.990Z,21.48
2016-09-22T09:38:41.283Z,21.49
2016-09-22T09:39:41.318Z,21.19
2016-09-22T09:40:41.290Z,21.22
2016-09-22T09:41:41.156Z,20.63
2016-09-22T09:42:41.167Z,20.75
2016-09-22T09:43:41.265Z,21.04
2016-09-22T09:44:41.104Z,21.15
2016-09-22T09:45:41.050Z,21.43
2016-09-22T09:46:41.149Z,22.15
2016-09-22T09:47:41.104Z,22.38
2016-09-22T09:48:41.262Z,22.63
2016-09-22T09:49:41.143Z,21.66
2016-09-22T09:50:41.147Z,21.46
2016-09-22T09:51:41.351Z,21.46
2016-09-22T09:52:41.317Z,21.45
2016-09-22T09:53:40.983Z,21.12
2016-09-22T09:54:41.102Z,20.94
2016-09-22T09:55:41.213Z,20.44
2016-09-22T09:56:41.023Z,21.19
2016-09-22T09:57:41.272Z,21.59
2016-09-22T09:58:41.152Z,21.92
2016-09-22T09:59:41.058Z,22.2
2016-09-22T10:00:41.301Z,22.26
2016-09-22T10:01:41.061Z,22.36
2016-09-22T10:02:41.135Z,22.49
2016-09-22T10:03:41.177Z,22.86
2016-09-22T10:04:42.387Z,23.16
2016-09-22T10:05:41.295Z,23.04
2016-09-22T10:06:41.246Z,22.91
2016-09-22T10:07:41.202Z,22.27
2016-09-22T10:08:41.165Z,22.39
2016-09-22T10:09:41.238Z,22.79
2016-09-22T10:10:41.204Z,23.09
2016-09-22T10:11:41.236Z,23.52
2016-09-22T10:12:41.334Z,23.53
2016-09-22T10:13:41.163Z,23.93
2016-09-22T10:14:41.181Z,24.19
2016-09-22T10:15:41.559Z,24.44
2016-09-22T10:16:41.200Z,24.51
2016-09-22T10:17:41.320Z,24.71
2016-09-22T10:18:41.490Z,24.15
2016-09-22T10:19:41.361Z,23.64
2016-09-22T10:20:41.676Z,23.12
2016-09-22T10:21:41.443Z,22.38
2016-09-22T10:22:41.412Z,21.09
2016-09-22T10:23:41.322Z,21.41
2016-09-22T10:24:42.508Z,21.85
2016-09-22T10:25:44.061Z,21.34
2016-09-22T10:26:41.475Z,21.33
2016-09-22T10:27:41.155Z,22.18
2016-09-22T10:28:41.206Z,22.75
2016-09-22T10:29:41.407Z,22.97
2016-09-22T10:30:41.395Z,23.18
2016-09-22T10:31:41.303Z,23.44
2016-09-22T10:32:41.303Z,23.34
2016-09-22T10:33:41.480Z,23.26
2016-09-22T10:34:41.136Z,23.56
2016-09-22T10:35:41.324Z,23.77
2016-09-22T10:36:41.593Z,23.71
2016-09-22T10:37:41.305Z,23.44
2016-09-22T10:38:41.440Z,22.7
2016-09-22T10:39:41.492Z,22.51
2016-09-22T10:40:41.172Z,23.04
2016-09-22T10:41:41.375Z,23.41
2016-09-22T10:42:41.354Z,23.63
2016-09-22T10:43:41.316Z,23.7
2016-09-22T10:44:41.189Z,23.26
2016-09-22T10:45:41.417Z,23.53
2016-09-22T10:46:41.195Z,23.26
2016-09-22T10:47:41.615Z,23.29
2016-09-22T10:48:48.967Z,23.21
2016-09-22T10:49:41.337Z,22.42
2016-09-22T10:50:41.334Z,22.92
2016-09-22T10:51:41.363Z,23.34
2016-09-22T10:52:41.673Z,23.52
2016-09-22T10:53:41.263Z,23.18
2016-09-22T10:54:41.330Z,22.22
2016-09-22T10:55:41.901Z,21.53
2016-09-22T10:56:41.683Z,21.37
2016-09-22T10:57:41.584Z,21.83
2016-09-22T10:58:41.351Z,22.26
2016-09-22T10:59:41.568Z,21.99
2016-09-22T11:00:41.174Z,22.07
2016-09-22T11:01:41.387Z,22.38
2016-09-22T11:02:41.371Z,22.91
2016-09-22T11:03:41.551Z,23.4
2016-09-22T11:04:41.885Z,23.21
2016-09-22T11:05:41.249Z,22.85
2016-09-22T11:06:41.311Z,22.92
2016-09-22T11:07:41.581Z,22.89
2016-09-22T11:08:41.487Z,23.37
2016-09-22T11:09:41.249Z,23.28
2016-09-22T11:10:41.405Z,22.38
2016-09-22T11:11:42.247Z,22.22
2016-09-22T11:12:41.281Z,22.15
2016-09-22T11:13:41.508Z,22.34
2016-09-22T11:14:41.415Z,22.61
2016-09-22T11:15:41.388Z,22.86
2016-09-22T11:16:41.407Z,23.03
2016-09-22T11:17:41.303Z,22.91
2016-09-22T11:18:41.420Z,23
2016-09-22T11:19:41.417Z,23.06
2016-09-22T11:20:41.447Z,23.4
2016-09-22T11:21:41.382Z,23.81
2016-09-22T11:22:41.393Z,23.85
2016-09-22T11:23:41.379Z,23.64
2016-09-22T11:24:41.466Z,23.55
2016-09-22T11:25:41.415Z,23.25
2016-09-22T11:26:41.393Z,23.34
2016-09-22T11:27:41.338Z,23.15
2016-09-22T11:28:41.514Z,23.37
2016-09-22T11:29:41.301Z,23.96
2016-09-22T11:30:41.460Z,24.32
2016-09-22T11:31:41.324Z,24.27
2016-09-22T11:32:41.482Z,23.82
2016-09-22T11:33:41.456Z,23.53
2016-09-22T11:34:41.584Z,23.64
2016-09-22T11:35:41.877Z,23.99
2016-09-22T11:36:41.529Z,23.15
2016-09-22T11:37:41.669Z,22.91
2016-09-22T11:38:41.541Z,23.19
2016-09-22T11:39:41.467Z,23.26
2016-09-22T11:40:41.832Z,23.81
2016-09-22T11:41:42.923Z,23.45
2016-09-22T11:42:41.290Z,23.1
2016-09-22T11:43:41.444Z,22.97
2016-09-22T11:44:41.471Z,22.89
2016-09-22T11:45:41.440Z,22.82
2016-09-22T11:46:41.710Z,22.51
2016-09-22T11:47:41.596Z,22.76
2016-09-22T11:48:41.466Z,22.07
2016-09-22T11:49:42.216Z,22.24
2016-09-22T11:50:41.518Z,22.39
2016-09-22T11:51:41.770Z,22.44
2016-09-22T11:52:41.508Z,22.78
2016-09-22T11:53:41.609Z,22.6
2016-09-22T11:54:41.475Z,22.76
2016-09-22T11:55:41.657Z,22.38
2016-09-22T11:56:41.550Z,22.38
2016-09-22T11:57:41.353Z,22.82
2016-09-22T11:58:41.639Z,23
2016-09-22T11:59:41.398Z,22.42
2016-09-22T12:00:41.543Z,22.02
2016-09-22T12:01:41.572Z,22.6
2016-09-22T12:02:41.597Z,22.88
2016-09-22T12:03:41.671Z,23.03
2016-09-22T12:04:41.676Z,23.38
2016-09-22T12:05:41.675Z,23.04
2016-09-22T12:06:41.673Z,23.01
2016-09-22T12:07:41.553Z,22.89
2016-09-22T12:08:41.569Z,22.91
2016-09-22T12:09:41.575Z,22.86
2016-09-22T12:10:41.700Z,23.56
2016-09-22T12:11:41.722Z,23.35
2016-09-22T12:12:41.950Z,23.21
2016-09-22T12:13:41.762Z,23.97
2016-09-22T12:14:41.707Z,23.89
2016-09-22T12:15:41.658Z,23.74
2016-09-22T12:16:41.585Z,23.28
2016-09-22T12:17:41.636Z,23.24
2016-09-22T12:18:41.734Z,22.67
2016-09-22T12:19:41.599Z,22.2
2016-09-22T12:20:41.558Z,22.26
2016-09-22T12:21:41.616Z,22.71
2016-09-22T12:22:41.577Z,23.34
2016-09-22T12:23:41.751Z,23.25
2016-09-22T12:24:41.568Z,22.81
2016-09-22T12:25:41.751Z,22.7
2016-09-22T12:26:41.581Z,22.29
2016-09-22T12:27:41.622Z,22.52
2016-09-22T12:28:42.258Z,22.11
2016-09-22T12:29:41.694Z,22.18
2016-09-22T12:30:41.452Z,22.41
2016-09-22T12:31:41.629Z,22.63
2016-09-22T12:32:41.608Z,22.36
2016-09-22T12:33:41.608Z,22.91
2016-09-22T12:34:41.629Z,23.71
2016-09-22T12:35:41.565Z,23.53
2016-09-22T12:36:41.665Z,22.85
2016-09-22T12:37:41.615Z,22.24
2016-09-22T12:38:41.634Z,22.2
2016-09-22T12:39:41.791Z,22.33
2016-09-22T12:40:41.703Z,22.78
2016-09-22T12:41:41.677Z,23.24
2016-09-22T12:42:41.652Z,23.79
2016-09-22T12:43:43.547Z,23.93
2016-09-22T12:44:42.015Z,24.03
2016-09-22T12:45:41.692Z,24.52
2016-09-22T12:46:41.798Z,24.03
2016-09-22T12:47:41.802Z,23.84
2016-09-22T12:48:41.688Z,23.71
2016-09-22T12:49:41.793Z,23.71
2016-09-22T12:50:41.697Z,22.89
2016-09-22T12:51:41.670Z,22.64
2016-09-22T12:52:41.689Z,23.22
2016-09-22T12:53:41.659Z,23.55
2016-09-22T12:54:41.839Z,23.74
2016-09-22T12:55:41.822Z,23.72
2016-09-22T12:56:41.706Z,23.53
2016-09-22T12:57:41.816Z,23.6
2016-09-22T12:58:41.723Z,23.6
2016-09-22T12:59:41.678Z,23.84
2016-09-22T13:00:42.208Z,24.07
2016-09-22T13:01:41.754Z,24.17
2016-09-22T13:02:41.669Z,24.27
2016-09-22T13:03:41.646Z,24.46